sensor_id;sensor_type;location;lat;lon;timestamp;P1;durP1;ratioP1;P2;durP2;ratioP2
63801;SDS011;49949;43.060;25.624;2023-05-10T00:02:08;7.68;;;5.28;;
63801;SDS011;49949;43.060;25.624;2023-05-10T00:04:34;20.17;;;5.53;;
63801;SDS011;49949;43.060;25.624;2023-05-10T00:07:00;8.90;;;5.50;;
63801;SDS011;49949;43.060;25.624;2023-05-10T00:09:26;12.70;;;5.15;;
63801;SDS011;49949;43.060;25.624;2023-05-10T00:11:52;13.32;;;5.15;;
63801;SDS011;49949;43.060;25.624;2023-05-10T00:14:18;12.15;;;5.25;;
63801;SDS011;49949;43.060;25.624;2023-05-10T00:16:43;8.00;;;5.68;;
63801;SDS011;49949;43.060;25.624;2023-05-10T00:19:09;10.73;;;5.72;;
63801;SDS011;49949;43.060;25.624;2023-05-10T00:21:35;9.32;;;5.15;;
63801;SDS011;49949;43.060;25.624;2023-05-10T00:24:01;7.28;;;5.13;;
63801;SDS011;49949;43.060;25.624;2023-05-10T00:26:27;13.35;;;5.43;;
63801;SDS011;49949;43.060;25.624;2023-05-10T00:28:53;7.18;;;5.40;;
63801;SDS011;49949;43.060;25.624;2023-05-10T00:31:18;6.10;;;5.05;;
63801;SDS011;49949;43.060;25.624;2023-05-10T00:33:44;11.98;;;5.05;;
63801;SDS011;49949;43.060;25.624;2023-05-10T00:36:11;9.10;;;4.93;;
63801;SDS011;49949;43.060;25.624;2023-05-10T00:38:37;9.65;;;5.50;;
63801;SDS011;49949;43.060;25.624;2023-05-10T00:41:03;8.35;;;5.35;;
63801;SDS011;49949;43.060;25.624;2023-05-10T00:43:28;8.00;;;4.80;;
63801;SDS011;49949;43.060;25.624;2023-05-10T00:45:54;6.55;;;4.82;;
63801;SDS011;49949;43.060;25.624;2023-05-10T00:48:20;7.20;;;5.18;;
63801;SDS011;49949;43.060;25.624;2023-05-10T00:50:46;10.43;;;5.00;;
63801;SDS011;49949;43.060;25.624;2023-05-10T00:53:12;8.32;;;4.55;;
63801;SDS011;49949;43.060;25.624;2023-05-10T00:55:40;16.13;;;4.13;;
63801;SDS011;49949;43.060;25.624;2023-05-10T00:58:06;9.23;;;4.10;;
63801;SDS011;49949;43.060;25.624;2023-05-10T01:00:33;10.73;;;4.57;;
63801;SDS011;49949;43.060;25.624;2023-05-10T01:03:00;8.30;;;4.65;;
63801;SDS011;49949;43.060;25.624;2023-05-10T01:05:26;7.57;;;4.93;;
63801;SDS011;49949;43.060;25.624;2023-05-10T01:07:52;6.55;;;4.95;;
63801;SDS011;49949;43.060;25.624;2023-05-10T01:10:18;10.38;;;4.47;;
63801;SDS011;49949;43.060;25.624;2023-05-10T01:12:45;6.40;;;4.57;;
63801;SDS011;49949;43.060;25.624;2023-05-10T01:15:12;8.10;;;4.32;;
63801;SDS011;49949;43.060;25.624;2023-05-10T01:17:39;6.65;;;4.20;;
63801;SDS011;49949;43.060;25.624;2023-05-10T01:20:07;8.73;;;4.30;;
63801;SDS011;49949;43.060;25.624;2023-05-10T01:33:27;6.15;;;3.80;;
63801;SDS011;49949;43.060;25.624;2023-05-10T01:36:19;9.27;;;4.47;;
63801;SDS011;49949;43.060;25.624;2023-05-10T01:41:44;7.97;;;4.45;;
63801;SDS011;49949;43.060;25.624;2023-05-10T01:46:53;7.45;;;4.63;;
63801;SDS011;49949;43.060;25.624;2023-05-10T01:49:30;7.55;;;4.70;;
63801;SDS011;49949;43.060;25.624;2023-05-10T01:52:00;7.47;;;4.30;;
63801;SDS011;49949;43.060;25.624;2023-05-10T01:54:32;9.15;;;4.57;;
63801;SDS011;49949;43.060;25.624;2023-05-10T01:57:00;9.07;;;5.05;;
63801;SDS011;49949;43.060;25.624;2023-05-10T01:59:31;13.88;;;5.38;;
63801;SDS011;49949;43.060;25.624;2023-05-10T02:02:05;13.80;;;4.88;;
63801;SDS011;49949;43.060;25.624;2023-05-10T02:04:32;22.08;;;5.60;;
63801;SDS011;49949;43.060;25.624;2023-05-10T02:07:02;15.73;;;5.03;;
63801;SDS011;49949;43.060;25.624;2023-05-10T02:09:30;7.60;;;4.30;;
63801;SDS011;49949;43.060;25.624;2023-05-10T02:11:59;8.40;;;4.45;;
63801;SDS011;49949;43.060;25.624;2023-05-10T02:14:27;9.88;;;4.60;;
63801;SDS011;49949;43.060;25.624;2023-05-10T02:16:57;8.30;;;4.57;;
63801;SDS011;49949;43.060;25.624;2023-05-10T02:19:24;8.73;;;4.50;;
63801;SDS011;49949;43.060;25.624;2023-05-10T02:21:52;13.13;;;5.80;;
63801;SDS011;49949;43.060;25.624;2023-05-10T02:24:20;6.90;;;4.68;;
63801;SDS011;49949;43.060;25.624;2023-05-10T02:26:48;14.13;;;4.40;;
63801;SDS011;49949;43.060;25.624;2023-05-10T02:29:16;5.75;;;4.50;;
63801;SDS011;49949;43.060;25.624;2023-05-10T02:31:43;7.20;;;4.43;;
63801;SDS011;49949;43.060;25.624;2023-05-10T02:34:10;6.20;;;4.20;;
63801;SDS011;49949;43.060;25.624;2023-05-10T02:36:37;10.88;;;4.63;;
63801;SDS011;49949;43.060;25.624;2023-05-10T02:39:05;12.45;;;4.00;;
63801;SDS011;49949;43.060;25.624;2023-05-10T02:41:35;13.82;;;3.80;;
63801;SDS011;49949;43.060;25.624;2023-05-10T02:44:02;9.40;;;4.90;;
63801;SDS011;49949;43.060;25.624;2023-05-10T02:46:28;8.90;;;4.22;;
63801;SDS011;49949;43.060;25.624;2023-05-10T02:48:54;11.90;;;5.43;;
63801;SDS011;49949;43.060;25.624;2023-05-10T02:51:20;7.55;;;3.63;;
63801;SDS011;49949;43.060;25.624;2023-05-10T02:53:49;5.75;;;4.07;;
63801;SDS011;49949;43.060;25.624;2023-05-10T02:59:16;7.85;;;4.68;;
63801;SDS011;49949;43.060;25.624;2023-05-10T03:01:41;11.70;;;6.78;;
63801;SDS011;49949;43.060;25.624;2023-05-10T03:04:07;18.35;;;5.20;;
63801;SDS011;49949;43.060;25.624;2023-05-10T03:06:33;13.95;;;5.03;;
63801;SDS011;49949;43.060;25.624;2023-05-10T03:08:59;11.18;;;5.05;;
63801;SDS011;49949;43.060;25.624;2023-05-10T03:14:21;10.02;;;4.78;;
63801;SDS011;49949;43.060;25.624;2023-05-10T03:17:10;10.30;;;4.70;;
63801;SDS011;49949;43.060;25.624;2023-05-10T03:19:40;8.77;;;4.90;;
63801;SDS011;49949;43.060;25.624;2023-05-10T03:22:15;20.20;;;5.60;;
63801;SDS011;49949;43.060;25.624;2023-05-10T03:24:47;10.30;;;4.63;;
63801;SDS011;49949;43.060;25.624;2023-05-10T03:27:14;14.93;;;5.28;;
63801;SDS011;49949;43.060;25.624;2023-05-10T03:29:40;10.27;;;4.53;;
63801;SDS011;49949;43.060;25.624;2023-05-10T03:32:07;10.63;;;5.25;;
63801;SDS011;49949;43.060;25.624;2023-05-10T03:34:33;13.77;;;5.72;;
63801;SDS011;49949;43.060;25.624;2023-05-10T03:36:59;5.70;;;4.57;;
63801;SDS011;49949;43.060;25.624;2023-05-10T03:39:24;8.40;;;3.92;;
63801;SDS011;49949;43.060;25.624;2023-05-10T03:41:50;6.22;;;4.43;;
63801;SDS011;49949;43.060;25.624;2023-05-10T03:44:16;7.22;;;4.38;;
63801;SDS011;49949;43.060;25.624;2023-05-10T03:46:41;21.15;;;5.20;;
63801;SDS011;49949;43.060;25.624;2023-05-10T03:49:07;13.10;;;4.97;;
63801;SDS011;49949;43.060;25.624;2023-05-10T03:51:33;13.23;;;5.28;;
63801;SDS011;49949;43.060;25.624;2023-05-10T03:53:58;18.42;;;6.32;;
63801;SDS011;49949;43.060;25.624;2023-05-10T03:56:24;10.45;;;5.53;;
63801;SDS011;49949;43.060;25.624;2023-05-10T03:58:50;8.90;;;4.50;;
63801;SDS011;49949;43.060;25.624;2023-05-10T04:01:15;8.75;;;3.80;;
63801;SDS011;49949;43.060;25.624;2023-05-10T04:03:41;12.00;;;4.10;;
63801;SDS011;49949;43.060;25.624;2023-05-10T04:06:07;10.77;;;3.80;;
63801;SDS011;49949;43.060;25.624;2023-05-10T04:08:34;7.15;;;3.45;;
63801;SDS011;49949;43.060;25.624;2023-05-10T04:11:10;8.55;;;3.22;;
63801;SDS011;49949;43.060;25.624;2023-05-10T04:13:36;11.82;;;3.05;;
63801;SDS011;49949;43.060;25.624;2023-05-10T04:16:03;6.05;;;2.92;;
63801;SDS011;49949;43.060;25.624;2023-05-10T04:18:29;3.85;;;2.80;;
63801;SDS011;49949;43.060;25.624;2023-05-10T04:20:56;3.97;;;2.83;;
63801;SDS011;49949;43.060;25.624;2023-05-10T04:23:22;12.65;;;3.03;;
63801;SDS011;49949;43.060;25.624;2023-05-10T04:25:47;7.80;;;2.67;;
63801;SDS011;49949;43.060;25.624;2023-05-10T04:28:13;11.50;;;3.10;;
63801;SDS011;49949;43.060;25.624;2023-05-10T04:30:39;5.50;;;2.67;;
63801;SDS011;49949;43.060;25.624;2023-05-10T04:33:05;12.35;;;2.97;;
63801;SDS011;49949;43.060;25.624;2023-05-10T04:35:31;5.97;;;2.83;;
63801;SDS011;49949;43.060;25.624;2023-05-10T04:37:56;6.10;;;2.80;;
63801;SDS011;49949;43.060;25.624;2023-05-10T04:40:22;9.15;;;2.67;;
63801;SDS011;49949;43.060;25.624;2023-05-10T04:42:48;7.30;;;2.70;;
63801;SDS011;49949;43.060;25.624;2023-05-10T04:45:13;7.55;;;2.42;;
63801;SDS011;49949;43.060;25.624;2023-05-10T04:47:42;7.13;;;2.42;;
63801;SDS011;49949;43.060;25.624;2023-05-10T04:50:07;5.65;;;2.65;;
63801;SDS011;49949;43.060;25.624;2023-05-10T04:52:33;3.20;;;2.22;;
63801;SDS011;49949;43.060;25.624;2023-05-10T04:54:59;4.75;;;2.40;;
63801;SDS011;49949;43.060;25.624;2023-05-10T04:57:25;10.93;;;3.13;;
63801;SDS011;49949;43.060;25.624;2023-05-10T04:59:51;5.07;;;2.47;;
63801;SDS011;49949;43.060;25.624;2023-05-10T05:02:17;5.38;;;2.38;;
63801;SDS011;49949;43.060;25.624;2023-05-10T05:04:42;4.70;;;2.00;;
63801;SDS011;49949;43.060;25.624;2023-05-10T05:07:08;12.70;;;2.33;;
63801;SDS011;49949;43.060;25.624;2023-05-10T05:09:33;3.63;;;2.60;;
63801;SDS011;49949;43.060;25.624;2023-05-10T05:11:59;3.47;;;2.53;;
63801;SDS011;49949;43.060;25.624;2023-05-10T05:14:25;7.05;;;2.70;;
63801;SDS011;49949;43.060;25.624;2023-05-10T05:16:51;6.00;;;2.22;;
63801;SDS011;49949;43.060;25.624;2023-05-10T05:19:18;9.35;;;2.40;;
63801;SDS011;49949;43.060;25.624;2023-05-10T05:21:43;6.40;;;2.58;;
63801;SDS011;49949;43.060;25.624;2023-05-10T05:24:09;10.25;;;2.38;;
63801;SDS011;49949;43.060;25.624;2023-05-10T05:26:36;3.63;;;2.10;;
63801;SDS011;49949;43.060;25.624;2023-05-10T05:29:02;3.92;;;2.33;;
63801;SDS011;49949;43.060;25.624;2023-05-10T05:31:27;6.22;;;1.98;;
63801;SDS011;49949;43.060;25.624;2023-05-10T05:33:53;1.92;;;1.75;;
63801;SDS011;49949;43.060;25.624;2023-05-10T05:36:20;6.72;;;2.10;;
63801;SDS011;49949;43.060;25.624;2023-05-10T05:38:46;5.15;;;2.25;;
63801;SDS011;49949;43.060;25.624;2023-05-10T05:41:11;3.65;;;2.08;;
63801;SDS011;49949;43.060;25.624;2023-05-10T05:43:37;6.57;;;2.35;;
63801;SDS011;49949;43.060;25.624;2023-05-10T05:46:03;18.90;;;3.55;;
63801;SDS011;49949;43.060;25.624;2023-05-10T05:48:31;3.53;;;2.40;;
63801;SDS011;49949;43.060;25.624;2023-05-10T05:50:57;4.60;;;2.28;;
63801;SDS011;49949;43.060;25.624;2023-05-10T05:53:23;4.72;;;2.20;;
63801;SDS011;49949;43.060;25.624;2023-05-10T05:55:52;6.32;;;2.17;;
63801;SDS011;49949;43.060;25.624;2023-05-10T05:58:19;4.55;;;2.10;;
63801;SDS011;49949;43.060;25.624;2023-05-10T06:00:45;5.03;;;2.35;;
63801;SDS011;49949;43.060;25.624;2023-05-10T06:03:11;10.93;;;2.80;;
63801;SDS011;49949;43.060;25.624;2023-05-10T06:05:37;4.45;;;1.88;;
63801;SDS011;49949;43.060;25.624;2023-05-10T06:08:02;7.47;;;2.05;;
63801;SDS011;49949;43.060;25.624;2023-05-10T06:10:28;5.28;;;2.28;;
63801;SDS011;49949;43.060;25.624;2023-05-10T06:12:55;8.52;;;2.38;;
63801;SDS011;49949;43.060;25.624;2023-05-10T06:15:21;5.53;;;1.90;;
63801;SDS011;49949;43.060;25.624;2023-05-10T06:17:46;6.10;;;1.55;;
63801;SDS011;49949;43.060;25.624;2023-05-10T06:20:14;3.28;;;1.90;;
63801;SDS011;49949;43.060;25.624;2023-05-10T06:22:40;11.18;;;2.38;;
63801;SDS011;49949;43.060;25.624;2023-05-10T06:25:06;6.35;;;1.40;;
63801;SDS011;49949;43.060;25.624;2023-05-10T06:27:33;2.40;;;1.83;;
63801;SDS011;49949;43.060;25.624;2023-05-10T06:29:59;3.55;;;1.60;;
63801;SDS011;49949;43.060;25.624;2023-05-10T06:32:25;11.57;;;2.17;;
63801;SDS011;49949;43.060;25.624;2023-05-10T06:34:50;3.42;;;1.58;;
63801;SDS011;49949;43.060;25.624;2023-05-10T06:37:17;5.80;;;2.00;;
63801;SDS011;49949;43.060;25.624;2023-05-10T06:39:42;3.22;;;1.10;;
63801;SDS011;49949;43.060;25.624;2023-05-10T06:42:08;2.45;;;1.40;;
63801;SDS011;49949;43.060;25.624;2023-05-10T06:44:34;8.95;;;2.05;;
63801;SDS011;49949;43.060;25.624;2023-05-10T06:47:00;1.42;;;1.33;;
63801;SDS011;49949;43.060;25.624;2023-05-10T06:49:25;3.53;;;1.55;;
63801;SDS011;49949;43.060;25.624;2023-05-10T06:51:51;3.63;;;1.52;;
63801;SDS011;49949;43.060;25.624;2023-05-10T06:54:17;3.13;;;1.90;;
63801;SDS011;49949;43.060;25.624;2023-05-10T06:56:43;2.30;;;1.65;;
63801;SDS011;49949;43.060;25.624;2023-05-10T06:59:08;4.95;;;2.17;;
63801;SDS011;49949;43.060;25.624;2023-05-10T07:01:34;3.33;;;1.77;;
63801;SDS011;49949;43.060;25.624;2023-05-10T07:04:00;6.50;;;1.67;;
63801;SDS011;49949;43.060;25.624;2023-05-10T07:06:25;3.88;;;1.23;;
63801;SDS011;49949;43.060;25.624;2023-05-10T07:08:52;2.20;;;1.73;;
63801;SDS011;49949;43.060;25.624;2023-05-10T07:11:18;6.70;;;2.00;;
63801;SDS011;49949;43.060;25.624;2023-05-10T07:13:43;2.58;;;1.80;;
63801;SDS011;49949;43.060;25.624;2023-05-10T07:16:11;9.73;;;1.83;;
63801;SDS011;49949;43.060;25.624;2023-05-10T07:18:37;3.45;;;1.50;;
63801;SDS011;49949;43.060;25.624;2023-05-10T07:21:02;2.90;;;1.65;;
63801;SDS011;49949;43.060;25.624;2023-05-10T07:23:28;1.17;;;1.08;;
63801;SDS011;49949;43.060;25.624;2023-05-10T07:25:55;1.63;;;1.40;;
63801;SDS011;49949;43.060;25.624;2023-05-10T07:28:22;1.33;;;1.23;;
63801;SDS011;49949;43.060;25.624;2023-05-10T07:30:49;2.00;;;1.90;;
63801;SDS011;49949;43.060;25.624;2023-05-10T07:33:15;5.28;;;1.63;;
63801;SDS011;49949;43.060;25.624;2023-05-10T07:35:41;4.82;;;1.80;;
63801;SDS011;49949;43.060;25.624;2023-05-10T07:38:06;4.80;;;1.80;;
63801;SDS011;49949;43.060;25.624;2023-05-10T07:40:32;3.08;;;1.85;;
63801;SDS011;49949;43.060;25.624;2023-05-10T07:42:58;8.48;;;1.85;;
63801;SDS011;49949;43.060;25.624;2023-05-10T07:45:26;7.07;;;1.83;;
63801;SDS011;49949;43.060;25.624;2023-05-10T07:47:51;1.63;;;1.40;;
63801;SDS011;49949;43.060;25.624;2023-05-10T07:50:17;3.08;;;1.15;;
63801;SDS011;49949;43.060;25.624;2023-05-10T07:52:43;8.63;;;2.08;;
63801;SDS011;49949;43.060;25.624;2023-05-10T07:55:09;1.95;;;1.38;;
63801;SDS011;49949;43.060;25.624;2023-05-10T07:57:35;4.82;;;1.70;;
63801;SDS011;49949;43.060;25.624;2023-05-10T08:00:01;1.48;;;1.33;;
63801;SDS011;49949;43.060;25.624;2023-05-10T08:02:27;2.72;;;1.65;;
63801;SDS011;49949;43.060;25.624;2023-05-10T08:04:53;3.15;;;1.50;;
63801;SDS011;49949;43.060;25.624;2023-05-10T08:07:19;4.38;;;1.52;;
63801;SDS011;49949;43.060;25.624;2023-05-10T08:09:44;3.65;;;1.45;;
63801;SDS011;49949;43.060;25.624;2023-05-10T08:12:10;2.22;;;1.30;;
63801;SDS011;49949;43.060;25.624;2023-05-10T08:14:36;5.88;;;1.50;;
63801;SDS011;49949;43.060;25.624;2023-05-10T08:17:02;2.47;;;1.40;;
63801;SDS011;49949;43.060;25.624;2023-05-10T08:19:28;5.28;;;1.50;;
63801;SDS011;49949;43.060;25.624;2023-05-10T08:21:54;6.55;;;1.60;;
63801;SDS011;49949;43.060;25.624;2023-05-10T08:24:20;1.27;;;1.17;;
63801;SDS011;49949;43.060;25.624;2023-05-10T08:26:47;4.75;;;1.33;;
63801;SDS011;49949;43.060;25.624;2023-05-10T08:29:13;3.45;;;1.20;;
63801;SDS011;49949;43.060;25.624;2023-05-10T08:31:39;3.47;;;1.40;;
63801;SDS011;49949;43.060;25.624;2023-05-10T08:34:05;1.67;;;1.23;;
63801;SDS011;49949;43.060;25.624;2023-05-10T08:36:31;2.47;;;1.20;;
63801;SDS011;49949;43.060;25.624;2023-05-10T08:38:57;13.73;;;1.55;;
63801;SDS011;49949;43.060;25.624;2023-05-10T08:41:23;1.10;;;1.10;;
63801;SDS011;49949;43.060;25.624;2023-05-10T08:43:50;1.60;;;1.50;;
63801;SDS011;49949;43.060;25.624;2023-05-10T08:46:20;4.00;;;1.23;;
63801;SDS011;49949;43.060;25.624;2023-05-10T08:48:47;7.20;;;1.55;;
63801;SDS011;49949;43.060;25.624;2023-05-10T08:51:17;5.40;;;1.95;;
63801;SDS011;49949;43.060;25.624;2023-05-10T08:53:45;4.65;;;1.48;;
63801;SDS011;49949;43.060;25.624;2023-05-10T08:56:11;6.22;;;1.25;;
63801;SDS011;49949;43.060;25.624;2023-05-10T08:58:37;0.98;;;0.98;;
63801;SDS011;49949;43.060;25.624;2023-05-10T09:01:03;2.72;;;1.00;;
63801;SDS011;49949;43.060;25.624;2023-05-10T09:03:30;1.55;;;1.20;;
63801;SDS011;49949;43.060;25.624;2023-05-10T09:05:56;1.50;;;1.15;;
63801;SDS011;49949;43.060;25.624;2023-05-10T09:08:23;22.77;;;2.55;;
63801;SDS011;49949;43.060;25.624;2023-05-10T09:10:52;3.17;;;1.80;;
63801;SDS011;49949;43.060;25.624;2023-05-10T09:13:22;1.52;;;1.38;;
63801;SDS011;49949;43.060;25.624;2023-05-10T09:15:49;4.00;;;1.23;;
63801;SDS011;49949;43.060;25.624;2023-05-10T09:18:15;6.68;;;1.35;;
63801;SDS011;49949;43.060;25.624;2023-05-10T09:20:41;1.10;;;1.10;;
63801;SDS011;49949;43.060;25.624;2023-05-10T09:23:07;1.58;;;1.48;;
63801;SDS011;49949;43.060;25.624;2023-05-10T09:25:33;7.88;;;1.42;;
63801;SDS011;49949;43.060;25.624;2023-05-10T09:27:59;2.05;;;1.38;;
63801;SDS011;49949;43.060;25.624;2023-05-10T09:32:51;6.43;;;1.27;;
63801;SDS011;49949;43.060;25.624;2023-05-10T09:35:19;2.45;;;1.30;;
63801;SDS011;49949;43.060;25.624;2023-05-10T09:37:47;3.85;;;1.33;;
63801;SDS011;49949;43.060;25.624;2023-05-10T09:42:54;17.58;;;1.52;;
63801;SDS011;49949;43.060;25.624;2023-05-10T09:45:20;1.55;;;1.20;;
63801;SDS011;49949;43.060;25.624;2023-05-10T09:47:46;3.15;;;1.35;;
63801;SDS011;49949;43.060;25.624;2023-05-10T09:50:13;2.10;;;1.38;;
63801;SDS011;49949;43.060;25.624;2023-05-10T09:55:15;1.25;;;1.00;;
63801;SDS011;49949;43.060;25.624;2023-05-10T09:57:41;1.65;;;1.13;;
63801;SDS011;49949;43.060;25.624;2023-05-10T10:00:07;0.95;;;0.90;;
63801;SDS011;49949;43.060;25.624;2023-05-10T10:02:35;2.28;;;1.30;;
63801;SDS011;49949;43.060;25.624;2023-05-10T10:05:01;1.35;;;0.93;;
63801;SDS011;49949;43.060;25.624;2023-05-10T10:07:30;3.47;;;1.30;;
63801;SDS011;49949;43.060;25.624;2023-05-10T10:09:57;1.38;;;0.90;;
63801;SDS011;49949;43.060;25.624;2023-05-10T10:12:25;0.75;;;0.75;;
63801;SDS011;49949;43.060;25.624;2023-05-10T10:14:50;0.70;;;0.70;;
63801;SDS011;49949;43.060;25.624;2023-05-10T10:17:17;1.65;;;1.10;;
63801;SDS011;49949;43.060;25.624;2023-05-10T10:19:44;2.10;;;1.30;;
63801;SDS011;49949;43.060;25.624;2023-05-10T10:22:13;1.33;;;1.10;;
63801;SDS011;49949;43.060;25.624;2023-05-10T10:24:39;2.05;;;1.20;;
63801;SDS011;49949;43.060;25.624;2023-05-10T10:27:14;1.17;;;1.00;;
63801;SDS011;49949;43.060;25.624;2023-05-10T10:35:27;1.55;;;1.40;;
63801;SDS011;49949;43.060;25.624;2023-05-10T10:37:54;1.92;;;1.20;;
63801;SDS011;49949;43.060;25.624;2023-05-10T10:42:56;1.20;;;1.10;;
63801;SDS011;49949;43.060;25.624;2023-05-10T10:45:23;1.63;;;0.77;;
63801;SDS011;49949;43.060;25.624;2023-05-10T10:50:56;6.95;;;1.08;;
63801;SDS011;49949;43.060;25.624;2023-05-10T10:53:23;1.77;;;1.10;;
63801;SDS011;49949;43.060;25.624;2023-05-10T10:55:53;0.80;;;0.80;;
63801;SDS011;49949;43.060;25.624;2023-05-10T10:58:34;0.90;;;0.90;;
63801;SDS011;49949;43.060;25.624;2023-05-10T11:06:42;1.88;;;0.95;;
63801;SDS011;49949;43.060;25.624;2023-05-10T11:09:08;1.65;;;0.70;;
63801;SDS011;49949;43.060;25.624;2023-05-10T11:11:35;3.45;;;1.15;;
63801;SDS011;49949;43.060;25.624;2023-05-10T11:14:04;2.58;;;1.00;;
63801;SDS011;49949;43.060;25.624;2023-05-10T11:16:41;2.75;;;1.20;;
63801;SDS011;49949;43.060;25.624;2023-05-10T11:19:11;3.03;;;1.15;;
63801;SDS011;49949;43.060;25.624;2023-05-10T11:24:35;4.68;;;1.10;;
63801;SDS011;49949;43.060;25.624;2023-05-10T11:27:01;3.03;;;1.17;;
63801;SDS011;49949;43.060;25.624;2023-05-10T11:29:27;1.00;;;1.00;;
63801;SDS011;49949;43.060;25.624;2023-05-10T11:31:52;3.78;;;1.55;;
63801;SDS011;49949;43.060;25.624;2023-05-10T11:34:24;10.38;;;1.52;;
63801;SDS011;49949;43.060;25.624;2023-05-10T11:36:55;8.65;;;1.70;;
63801;SDS011;49949;43.060;25.624;2023-05-10T11:39:25;22.40;;;2.03;;
63801;SDS011;49949;43.060;25.624;2023-05-10T11:41:52;5.82;;;1.52;;
63801;SDS011;49949;43.060;25.624;2023-05-10T11:44:18;12.57;;;1.50;;
63801;SDS011;49949;43.060;25.624;2023-05-10T11:46:44;1.40;;;1.02;;
63801;SDS011;49949;43.060;25.624;2023-05-10T11:49:09;1.35;;;1.00;;
63801;SDS011;49949;43.060;25.624;2023-05-10T11:51:35;4.63;;;1.30;;
63801;SDS011;49949;43.060;25.624;2023-05-10T11:54:04;3.03;;;1.60;;
63801;SDS011;49949;43.060;25.624;2023-05-10T11:56:35;1.92;;;1.23;;
63801;SDS011;49949;43.060;25.624;2023-05-10T11:59:01;3.13;;;1.30;;
63801;SDS011;49949;43.060;25.624;2023-05-10T12:04:30;13.70;;;1.50;;
63801;SDS011;49949;43.060;25.624;2023-05-10T12:06:56;1.95;;;1.20;;
63801;SDS011;49949;43.060;25.624;2023-05-10T12:09:22;2.70;;;1.17;;
63801;SDS011;49949;43.060;25.624;2023-05-10T12:11:48;1.20;;;1.10;;
63801;SDS011;49949;43.060;25.624;2023-05-10T12:14:13;4.05;;;1.30;;
63801;SDS011;49949;43.060;25.624;2023-05-10T12:16:40;2.25;;;1.20;;
63801;SDS011;49949;43.060;25.624;2023-05-10T12:19:08;3.00;;;1.30;;
63801;SDS011;49949;43.060;25.624;2023-05-10T12:21:34;3.58;;;1.15;;
63801;SDS011;49949;43.060;25.624;2023-05-10T12:24:01;16.33;;;2.13;;
63801;SDS011;49949;43.060;25.624;2023-05-10T12:26:28;2.28;;;1.20;;
63801;SDS011;49949;43.060;25.624;2023-05-10T12:28:55;5.07;;;1.20;;
63801;SDS011;49949;43.060;25.624;2023-05-10T12:31:50;5.15;;;1.10;;
63801;SDS011;49949;43.060;25.624;2023-05-10T12:34:23;2.00;;;1.30;;
63801;SDS011;49949;43.060;25.624;2023-05-10T12:36:51;1.20;;;1.10;;
63801;SDS011;49949;43.060;25.624;2023-05-10T12:39:18;3.80;;;1.20;;
63801;SDS011;49949;43.060;25.624;2023-05-10T12:41:43;4.03;;;1.17;;
63801;SDS011;49949;43.060;25.624;2023-05-10T12:44:09;1.48;;;1.08;;
63801;SDS011;49949;43.060;25.624;2023-05-10T12:46:35;1.30;;;1.05;;
63801;SDS011;49949;43.060;25.624;2023-05-10T12:49:00;3.70;;;1.35;;
63801;SDS011;49949;43.060;25.624;2023-05-10T12:51:26;7.35;;;0.90;;
63801;SDS011;49949;43.060;25.624;2023-05-10T12:53:52;1.55;;;1.10;;
63801;SDS011;49949;43.060;25.624;2023-05-10T12:56:17;1.75;;;1.08;;
63801;SDS011;49949;43.060;25.624;2023-05-10T12:58:43;2.80;;;1.45;;
63801;SDS011;49949;43.060;25.624;2023-05-10T13:01:12;1.67;;;1.35;;
63801;SDS011;49949;43.060;25.624;2023-05-10T13:03:39;3.17;;;1.40;;
63801;SDS011;49949;43.060;25.624;2023-05-10T13:06:04;1.70;;;1.17;;
63801;SDS011;49949;43.060;25.624;2023-05-10T13:08:31;2.90;;;0.98;;
63801;SDS011;49949;43.060;25.624;2023-05-10T13:11:01;1.08;;;0.98;;
63801;SDS011;49949;43.060;25.624;2023-05-10T13:13:28;1.05;;;1.00;;
63801;SDS011;49949;43.060;25.624;2023-05-10T13:15:54;1.92;;;1.38;;
63801;SDS011;49949;43.060;25.624;2023-05-10T13:18:19;4.10;;;1.40;;
63801;SDS011;49949;43.060;25.624;2023-05-10T13:20:45;1.27;;;1.08;;
63801;SDS011;49949;43.060;25.624;2023-05-10T13:23:11;1.85;;;1.35;;
63801;SDS011;49949;43.060;25.624;2023-05-10T13:25:36;1.67;;;1.33;;
63801;SDS011;49949;43.060;25.624;2023-05-10T13:28:02;2.08;;;1.15;;
63801;SDS011;49949;43.060;25.624;2023-05-10T13:30:28;2.63;;;1.00;;
63801;SDS011;49949;43.060;25.624;2023-05-10T13:32:54;3.15;;;1.40;;
63801;SDS011;49949;43.060;25.624;2023-05-10T13:35:19;2.08;;;1.42;;
63801;SDS011;49949;43.060;25.624;2023-05-10T13:37:45;3.60;;;1.08;;
63801;SDS011;49949;43.060;25.624;2023-05-10T13:40:11;3.35;;;1.15;;
63801;SDS011;49949;43.060;25.624;2023-05-10T13:42:37;3.60;;;1.40;;
63801;SDS011;49949;43.060;25.624;2023-05-10T13:45:03;1.35;;;1.25;;
63801;SDS011;49949;43.060;25.624;2023-05-10T13:47:29;2.50;;;1.20;;
63801;SDS011;49949;43.060;25.624;2023-05-10T13:49:55;3.10;;;1.10;;
63801;SDS011;49949;43.060;25.624;2023-05-10T13:52:21;2.53;;;1.23;;
63801;SDS011;49949;43.060;25.624;2023-05-10T13:54:46;3.33;;;1.20;;
63801;SDS011;49949;43.060;25.624;2023-05-10T13:57:12;4.18;;;1.00;;
63801;SDS011;49949;43.060;25.624;2023-05-10T13:59:38;4.70;;;1.50;;
63801;SDS011;49949;43.060;25.624;2023-05-10T14:02:04;5.50;;;1.15;;
63801;SDS011;49949;43.060;25.624;2023-05-10T14:04:31;7.28;;;1.20;;
63801;SDS011;49949;43.060;25.624;2023-05-10T14:06:57;3.22;;;1.60;;
63801;SDS011;49949;43.060;25.624;2023-05-10T14:09:22;3.63;;;1.27;;
63801;SDS011;49949;43.060;25.624;2023-05-10T14:11:48;11.93;;;1.60;;
63801;SDS011;49949;43.060;25.624;2023-05-10T14:14:14;3.92;;;1.40;;
63801;SDS011;49949;43.060;25.624;2023-05-10T14:16:43;1.80;;;1.27;;
63801;SDS011;49949;43.060;25.624;2023-05-10T14:19:09;1.33;;;1.25;;
63801;SDS011;49949;43.060;25.624;2023-05-10T14:21:36;1.17;;;1.17;;
63801;SDS011;49949;43.060;25.624;2023-05-10T14:24:02;1.42;;;1.33;;
63801;SDS011;49949;43.060;25.624;2023-05-10T14:26:27;3.28;;;1.20;;
63801;SDS011;49949;43.060;25.624;2023-05-10T14:28:53;1.48;;;1.23;;
63801;SDS011;49949;43.060;25.624;2023-05-10T14:31:19;3.63;;;1.35;;
63801;SDS011;49949;43.060;25.624;2023-05-10T14:33:45;1.20;;;1.10;;
63801;SDS011;49949;43.060;25.624;2023-05-10T14:36:12;1.30;;;1.20;;
63801;SDS011;49949;43.060;25.624;2023-05-10T14:38:38;1.48;;;1.23;;
63801;SDS011;49949;43.060;25.624;2023-05-10T14:41:04;2.97;;;1.13;;
63801;SDS011;49949;43.060;25.624;2023-05-10T14:43:30;1.05;;;1.05;;
63801;SDS011;49949;43.060;25.624;2023-05-10T14:45:56;0.93;;;0.93;;
63801;SDS011;49949;43.060;25.624;2023-05-10T14:48:21;1.58;;;1.15;;
63801;SDS011;49949;43.060;25.624;2023-05-10T14:50:47;0.98;;;0.98;;
63801;SDS011;49949;43.060;25.624;2023-05-10T14:56:00;5.25;;;1.27;;
63801;SDS011;49949;43.060;25.624;2023-05-10T14:58:26;1.35;;;1.17;;
63801;SDS011;49949;43.060;25.624;2023-05-10T15:00:52;4.32;;;1.27;;
63801;SDS011;49949;43.060;25.624;2023-05-10T15:03:18;3.22;;;1.20;;
63801;SDS011;49949;43.060;25.624;2023-05-10T15:05:44;2.22;;;1.10;;
63801;SDS011;49949;43.060;25.624;2023-05-10T15:08:09;2.58;;;1.20;;
63801;SDS011;49949;43.060;25.624;2023-05-10T15:10:37;5.32;;;1.23;;
63801;SDS011;49949;43.060;25.624;2023-05-10T15:13:03;0.90;;;0.90;;
63801;SDS011;49949;43.060;25.624;2023-05-10T15:15:29;1.40;;;1.30;;
63801;SDS011;49949;43.060;25.624;2023-05-10T15:17:55;1.30;;;1.20;;
63801;SDS011;49949;43.060;25.624;2023-05-10T15:20:21;5.13;;;1.45;;
63801;SDS011;49949;43.060;25.624;2023-05-10T15:22:47;6.68;;;1.55;;
63801;SDS011;49949;43.060;25.624;2023-05-10T15:25:12;4.88;;;1.17;;
63801;SDS011;49949;43.060;25.624;2023-05-10T15:27:39;3.05;;;1.10;;